createdAt,value
2022-09-12T00:00:01.702Z,7.07
2022-09-12T00:01:10.651Z,6.55
2022-09-12T00:02:07.355Z,5.18
2022-09-12T00:03:04.103Z,6.20
2022-09-12T00:04:02.090Z,5.47
2022-09-12T00:04:59.182Z,5.22
2022-09-12T00:05:55.801Z,5.63
2022-09-12T00:06:52.608Z,5.40
2022-09-12T00:07:49.725Z,5.78
2022-09-12T00:08:46.627Z,5.78
2022-09-12T00:09:43.553Z,5.72
2022-09-12T00:10:41.875Z,5.60
2022-09-12T00:11:44.088Z,5.10
2022-09-12T00:12:41.204Z,5.68
2022-09-12T00:13:41.721Z,6.90
2022-09-12T00:14:38.743Z,7.45
2022-09-12T00:15:43.879Z,7.38
2022-09-12T00:16:41.184Z,7.10
2022-09-12T00:17:38.967Z,6.85
2022-09-12T00:18:35.564Z,6.63
2022-09-12T00:19:32.176Z,6.07
2022-09-12T00:20:28.780Z,7.15
2022-09-12T00:21:25.461Z,7.68
2022-09-12T00:22:22.115Z,7.15
2022-09-12T00:23:18.776Z,6.70
2022-09-12T00:24:15.404Z,6.75
2022-09-12T00:25:12.228Z,7.32
2022-09-12T00:26:09.613Z,7.07
2022-09-12T00:27:06.347Z,8.25
2022-09-12T00:28:02.996Z,7.35
2022-09-12T00:28:59.638Z,7.75
2022-09-12T00:29:56.354Z,8.27
2022-09-12T00:30:53.005Z,8.00
2022-09-12T00:31:49.664Z,7.15
2022-09-12T00:32:46.334Z,6.57
2022-09-12T00:33:43.582Z,6.78
2022-09-12T00:34:40.128Z,6.65
2022-09-12T00:35:50.291Z,6.47
2022-09-12T00:36:46.987Z,5.90
2022-09-12T00:37:43.588Z,5.97
2022-09-12T00:38:42.130Z,6.63
2022-09-12T00:39:39.170Z,5.85
2022-09-12T00:40:35.821Z,6.65
2022-09-12T00:41:38.714Z,6.45
2022-09-12T00:42:35.282Z,5.40
2022-09-12T00:43:39.806Z,5.60
2022-09-12T00:44:39.395Z,6.05
2022-09-12T00:45:36.110Z,5.93
2022-09-12T00:46:44.735Z,6.20
2022-09-12T00:47:42.156Z,5.93
2022-09-12T00:48:44.354Z,5.63
2022-09-12T00:49:52.069Z,5.85
2022-09-12T00:50:49.896Z,6.15
2022-09-12T00:51:56.035Z,6.88
2022-09-12T00:52:57.119Z,7.57
2022-09-12T00:53:55.606Z,8.23
2022-09-12T00:55:07.473Z,7.63
2022-09-12T00:56:04.172Z,7.95
2022-09-12T00:57:05.794Z,7.72
2022-09-12T00:58:09.197Z,8.00
2022-09-12T00:59:22.546Z,6.18
2022-09-12T01:00:21.396Z,5.80
2022-09-12T01:01:19.198Z,6.65
2022-09-12T01:02:16.290Z,6.93
2022-09-12T01:03:16.017Z,6.50
2022-09-12T01:04:13.592Z,6.43
2022-09-12T01:05:11.210Z,6.00
2022-09-12T01:06:11.968Z,7.15
2022-09-12T01:07:09.115Z,7.53
2022-09-12T01:08:06.348Z,7.35
2022-09-12T01:09:05.018Z,6.97
2022-09-12T01:10:01.926Z,6.47
2022-09-12T01:10:58.726Z,7.65
2022-09-12T01:11:55.932Z,8.23
2022-09-12T01:12:52.636Z,8.73
2022-09-12T01:13:50.787Z,9.55
2022-09-12T01:14:47.483Z,9.13
2022-09-12T01:15:44.146Z,8.93
2022-09-12T01:16:41.153Z,10.75
2022-09-12T01:17:48.891Z,10.30
2022-09-12T01:18:51.870Z,9.02
2022-09-12T01:20:31.881Z,9.70
2022-09-12T01:22:08.518Z,10.32
2022-09-12T01:23:26.096Z,10.13
2022-09-12T01:24:35.357Z,9.90
2022-09-12T01:26:13.561Z,12.43
2022-09-12T01:27:25.429Z,8.15
2022-09-12T01:28:49.163Z,8.55
2022-09-12T01:31:09.045Z,10.40
2022-09-12T01:32:49.401Z,10.65
2022-09-12T01:34:15.363Z,9.10
2022-09-12T01:35:25.750Z,7.35
2022-09-12T01:36:49.559Z,7.60
2022-09-12T01:38:48.263Z,7.88
2022-09-12T01:40:03.596Z,6.70
2022-09-12T01:41:31.144Z,8.25
2022-09-12T01:42:38.623Z,6.90
2022-09-12T01:43:53.522Z,7.10
2022-09-12T01:45:05.288Z,6.35
2022-09-12T01:46:35.219Z,8.70
2022-09-12T01:47:41.078Z,7.70
2022-09-12T01:48:58.082Z,8.80
2022-09-12T01:50:07.039Z,8.18
2022-09-12T01:51:32.363Z,7.75
2022-09-12T01:52:28.927Z,6.60
2022-09-12T01:53:32.367Z,7.25
2022-09-12T01:54:40.026Z,7.57
2022-09-12T01:55:46.484Z,6.75
2022-09-12T01:56:46.309Z,6.65
2022-09-12T01:57:51.333Z,6.70
2022-09-12T01:58:54.608Z,7.47
2022-09-12T01:59:57.699Z,7.00
2022-09-12T02:01:10.213Z,7.63
2022-09-12T02:02:17.039Z,8.38
2022-09-12T02:03:39.670Z,7.50
2022-09-12T02:04:44.861Z,10.05
2022-09-12T02:05:47.054Z,10.13
2022-09-12T02:06:56.737Z,10.48
2022-09-12T02:08:26.209Z,9.00
2022-09-12T02:09:39.838Z,7.68
2022-09-12T02:11:00.504Z,7.72
2022-09-12T02:12:00.870Z,7.93
2022-09-12T02:13:03.627Z,6.30
2022-09-12T02:14:09.268Z,7.47
2022-09-12T02:15:09.428Z,6.65
2022-09-12T02:16:12.745Z,7.15
2022-09-12T02:17:13.533Z,8.00
2022-09-12T02:18:14.638Z,5.55
2022-09-12T02:19:16.376Z,6.57
2022-09-12T02:20:47.410Z,8.07
2022-09-12T02:21:51.086Z,6.25
2022-09-12T02:22:50.282Z,6.65
2022-09-12T02:23:56.047Z,7.05
2022-09-12T02:24:59.630Z,7.75
2022-09-12T02:26:05.971Z,7.60
2022-09-12T02:27:11.628Z,6.22
2022-09-12T02:28:15.425Z,8.00
2022-09-12T02:29:12.117Z,9.20
2022-09-12T02:30:10.059Z,8.30
2022-09-12T02:31:40.264Z,8.02
2022-09-12T02:32:38.520Z,7.40
2022-09-12T02:34:13.555Z,10.57
2022-09-12T02:35:34.862Z,7.55
2022-09-12T02:37:00.903Z,9.35
2022-09-12T02:38:14.765Z,6.70
2022-09-12T02:39:11.414Z,8.13
2022-09-12T02:40:09.882Z,9.77
2022-09-12T02:41:07.373Z,9.93
2022-09-12T02:42:04.700Z,8.63
2022-09-12T02:43:03.110Z,8.32
2022-09-12T02:43:59.819Z,8.63
2022-09-12T02:44:57.392Z,7.93
2022-09-12T02:45:54.220Z,7.72
2022-09-12T02:46:55.686Z,8.05
2022-09-12T02:47:58.732Z,8.60
2022-09-12T02:48:56.595Z,9.00
2022-09-12T02:49:54.169Z,8.98
2022-09-12T02:50:51.339Z,9.07
2022-09-12T02:51:48.875Z,9.93
2022-09-12T02:52:46.639Z,9.23
2022-09-12T02:53:43.320Z,9.00
2022-09-12T02:54:40.563Z,8.63
2022-09-12T02:55:40.181Z,9.02
2022-09-12T02:56:41.915Z,7.20
2022-09-12T02:57:38.645Z,7.78
2022-09-12T02:58:35.470Z,8.18
2022-09-12T02:59:32.159Z,8.20
2022-09-12T03:00:34.967Z,7.45
2022-09-12T03:01:50.371Z,7.32
2022-09-12T03:03:05.367Z,7.20
2022-09-12T03:04:17.671Z,7.03
2022-09-12T03:05:24.960Z,8.27
2022-09-12T03:06:35.420Z,7.13
2022-09-12T03:07:39.807Z,6.53
2022-09-12T03:09:01.488Z,6.57
2022-09-12T03:10:12.307Z,6.80
2022-09-12T03:11:34.275Z,6.15
2022-09-12T03:12:55.499Z,5.90
2022-09-12T03:14:31.799Z,9.10
2022-09-12T03:15:41.630Z,8.88
2022-09-12T03:16:54.327Z,8.30
2022-09-12T03:17:56.747Z,9.00
2022-09-12T03:19:06.042Z,8.27
2022-09-12T03:20:19.848Z,9.32
2022-09-12T03:21:44.767Z,6.78
2022-09-12T03:22:56.621Z,8.70
2022-09-12T03:24:05.157Z,9.10
2022-09-12T03:25:21.522Z,7.82
2022-09-12T03:26:44.692Z,7.60
2022-09-12T03:27:47.002Z,7.15
2022-09-12T03:28:45.465Z,6.13
2022-09-12T03:29:44.718Z,7.57
2022-09-12T03:30:43.808Z,7.68
2022-09-12T03:31:50.388Z,9.20
2022-09-12T03:32:50.235Z,9.90
2022-09-12T03:33:46.833Z,9.40
2022-09-12T03:34:43.456Z,10.13
2022-09-12T03:35:40.234Z,8.77
2022-09-12T03:36:36.794Z,9.30
2022-09-12T03:37:33.553Z,9.30
2022-09-12T03:38:30.163Z,7.28
2022-09-12T03:39:27.091Z,9.13
2022-09-12T03:40:23.691Z,6.95
2022-09-12T03:41:20.953Z,6.97
2022-09-12T03:42:17.511Z,6.65
2022-09-12T03:43:14.086Z,6.40
2022-09-12T03:44:10.722Z,7.20
2022-09-12T03:45:08.847Z,7.30
2022-09-12T03:46:05.770Z,7.35
2022-09-12T03:47:02.426Z,7.07
2022-09-12T03:47:59.813Z,6.50
2022-09-12T03:48:56.568Z,6.53
2022-09-12T03:49:53.216Z,6.20
2022-09-12T03:50:49.781Z,6.20
2022-09-12T03:51:46.416Z,5.20
2022-09-12T03:52:43.009Z,6.47
2022-09-12T03:53:39.618Z,6.35
2022-09-12T03:54:36.407Z,6.72
2022-09-12T03:55:32.996Z,6.40
2022-09-12T03:56:30.303Z,6.28
2022-09-12T03:57:26.945Z,6.38
2022-09-12T03:58:24.291Z,6.55
2022-09-12T03:59:20.889Z,5.15
2022-09-12T04:00:19.876Z,5.72
2022-09-12T04:01:19.033Z,5.63
2022-09-12T04:02:15.774Z,5.47
2022-09-12T04:03:12.435Z,4.88
2022-09-12T04:04:11.800Z,5.43
2022-09-12T04:05:08.712Z,5.85
2022-09-12T04:06:05.712Z,7.82
2022-09-12T04:07:02.392Z,7.68
2022-09-12T04:07:59.038Z,7.90
2022-09-12T04:08:55.740Z,7.32
2022-09-12T04:09:53.288Z,7.80
2022-09-12T04:10:49.849Z,7.22
2022-09-12T04:11:46.535Z,7.68
2022-09-12T04:12:43.386Z,5.97
2022-09-12T04:13:41.640Z,6.03
2022-09-12T04:14:38.629Z,6.53
2022-09-12T04:15:35.187Z,6.10
2022-09-12T04:16:32.498Z,5.03
2022-09-12T04:17:29.082Z,5.18
2022-09-12T04:18:26.174Z,5.28
2022-09-12T04:19:23.610Z,5.15
2022-09-12T04:20:20.261Z,5.40
2022-09-12T04:21:19.741Z,5.47
2022-09-12T04:22:16.335Z,4.88
2022-09-12T04:23:12.913Z,4.97
2022-09-12T04:24:09.590Z,6.03
2022-09-12T04:25:07.287Z,5.45
2022-09-12T04:26:06.587Z,7.55
2022-09-12T04:27:07.586Z,7.90
2022-09-12T04:28:04.650Z,6.90
2022-09-12T04:29:01.236Z,7.53
2022-09-12T04:29:58.275Z,7.32
2022-09-12T04:30:55.748Z,6.35
2022-09-12T04:31:52.332Z,6.40
2022-09-12T04:32:48.886Z,6.40
2022-09-12T04:33:45.753Z,7.97
2022-09-12T04:34:42.324Z,7.07
2022-09-12T04:35:38.910Z,5.78
2022-09-12T04:36:35.692Z,5.97
2022-09-12T04:37:32.250Z,5.72
2022-09-12T04:38:29.077Z,6.25
2022-09-12T04:39:25.763Z,5.78
2022-09-12T04:40:22.601Z,5.40
2022-09-12T04:41:24.837Z,4.93
2022-09-12T04:42:21.432Z,5.65
2022-09-12T04:43:18.008Z,5.57
2022-09-12T04:44:15.086Z,6.22
2022-09-12T04:45:13.003Z,5.72
2022-09-12T04:46:11.681Z,7.18
2022-09-12T04:47:08.704Z,6.43
2022-09-12T04:48:05.372Z,5.90
2022-09-12T04:49:02.309Z,5.20
2022-09-12T04:49:59.029Z,5.55
2022-09-12T04:50:55.592Z,5.82
2022-09-12T04:51:54.977Z,6.90
2022-09-12T04:52:52.845Z,5.75
2022-09-12T04:53:52.069Z,5.00
2022-09-12T04:54:48.616Z,5.35
2022-09-12T04:55:45.244Z,5.07
2022-09-12T04:56:44.883Z,5.57
2022-09-12T04:57:41.495Z,6.43
2022-09-12T04:58:38.765Z,5.93
2022-09-12T04:59:35.761Z,5.50
2022-09-12T05:00:33.224Z,5.15
2022-09-12T05:01:30.378Z,5.40
2022-09-12T05:02:27.432Z,5.68
2022-09-12T05:03:24.050Z,5.28
2022-09-12T05:04:21.525Z,6.40
2022-09-12T05:05:18.214Z,5.38
2022-09-12T05:06:20.852Z,6.32
2022-09-12T05:07:17.437Z,5.68
2022-09-12T05:08:14.021Z,5.68
2022-09-12T05:09:12.588Z,6.57
2022-09-12T05:10:10.141Z,10.43
2022-09-12T05:11:22.713Z,8.85
2022-09-12T05:12:21.310Z,8.77
2022-09-12T05:13:17.966Z,9.77
2022-09-12T05:14:14.535Z,8.98
2022-09-12T05:15:11.685Z,8.63
2022-09-12T05:16:10.625Z,7.72
2022-09-12T05:17:08.555Z,9.48
2022-09-12T05:18:05.224Z,9.65
2022-09-12T05:19:01.819Z,8.50
2022-09-12T05:19:58.549Z,8.63
2022-09-12T05:20:56.074Z,8.10
2022-09-12T05:21:52.636Z,6.97
2022-09-12T05:22:49.174Z,6.82
2022-09-12T05:23:47.763Z,5.47
2022-09-12T05:24:49.880Z,5.97
2022-09-12T05:25:52.510Z,5.93
2022-09-12T05:26:49.065Z,5.60
2022-09-12T05:27:50.382Z,5.60
2022-09-12T05:28:49.405Z,5.38
2022-09-12T05:29:45.999Z,5.07
2022-09-12T05:30:42.645Z,5.22
2022-09-12T05:31:39.476Z,4.75
2022-09-12T05:32:36.149Z,4.13
2022-09-12T05:33:34.519Z,4.50
2022-09-12T05:34:31.196Z,3.60
2022-09-12T05:35:27.761Z,3.72
2022-09-12T05:36:27.029Z,3.78
2022-09-12T05:37:23.906Z,3.28
2022-09-12T05:38:20.507Z,3.33
2022-09-12T05:39:18.591Z,3.25
2022-09-12T05:40:17.808Z,3.00
2022-09-12T05:41:24.710Z,2.90
2022-09-12T05:42:21.900Z,3.20
2022-09-12T05:43:20.348Z,3.35
2022-09-12T05:44:17.701Z,3.00
2022-09-12T05:45:14.934Z,3.50
2022-09-12T05:46:14.870Z,3.35
2022-09-12T05:47:12.464Z,3.60
2022-09-12T05:48:09.078Z,3.30
2022-09-12T05:49:08.131Z,3.40
2022-09-12T05:50:10.762Z,3.80
2022-09-12T05:51:10.510Z,3.17
2022-09-12T05:52:07.733Z,2.80
2022-09-12T05:53:04.461Z,2.97
2022-09-12T05:54:03.458Z,2.47
2022-09-12T05:55:00.152Z,2.90
2022-09-12T05:56:14.164Z,3.00
2022-09-12T05:57:10.828Z,2.13
2022-09-12T05:58:07.482Z,2.53
2022-09-12T05:59:06.712Z,2.60
2022-09-12T06:00:05.873Z,2.40
2022-09-12T06:01:08.092Z,2.50
2022-09-12T06:02:04.760Z,2.25
2022-09-12T06:03:01.540Z,2.75
2022-09-12T06:04:03.280Z,2.80
2022-09-12T06:04:59.870Z,2.47
2022-09-12T06:05:56.463Z,2.20
2022-09-12T06:06:53.087Z,2.10
2022-09-12T06:07:49.649Z,2.63
2022-09-12T06:08:48.673Z,2.72
2022-09-12T06:09:45.220Z,2.80
2022-09-12T06:10:41.797Z,2.50
2022-09-12T06:11:42.399Z,2.65
2022-09-12T06:12:39.149Z,2.25
2022-09-12T06:13:37.739Z,2.53
2022-09-12T06:14:34.599Z,2.83
2022-09-12T06:15:31.175Z,3.08
2022-09-12T06:16:30.122Z,3.05
2022-09-12T06:17:26.784Z,3.03
2022-09-12T06:18:23.436Z,2.85
2022-09-12T06:19:22.341Z,2.45
2022-09-12T06:20:20.288Z,2.78
2022-09-12T06:21:16.892Z,2.40
2022-09-12T06:22:13.984Z,2.28
2022-09-12T06:23:10.593Z,2.33
2022-09-12T06:24:10.257Z,2.53
2022-09-12T06:25:07.361Z,3.08
2022-09-12T06:26:05.265Z,2.65
2022-09-12T06:27:02.548Z,2.20
2022-09-12T06:27:59.203Z,2.58
2022-09-12T06:28:57.725Z,2.47
2022-09-12T06:29:54.402Z,2.95
2022-09-12T06:30:51.154Z,3.38
2022-09-12T06:31:47.829Z,3.83
2022-09-12T06:32:44.647Z,3.17
2022-09-12T06:33:44.312Z,4.13
2022-09-12T06:34:40.910Z,3.90
2022-09-12T06:35:38.605Z,3.00
2022-09-12T06:36:42.288Z,3.22
2022-09-12T06:37:38.880Z,2.80
2022-09-12T06:38:35.588Z,2.67
2022-09-12T06:39:32.619Z,2.90
2022-09-12T06:40:29.847Z,2.58
2022-09-12T06:41:27.488Z,2.92
2022-09-12T06:42:24.860Z,2.50
2022-09-12T06:43:21.493Z,2.20
2022-09-12T06:44:22.404Z,2.50
2022-09-12T06:45:20.056Z,3.05
2022-09-12T06:46:16.824Z,2.83
2022-09-12T06:47:13.534Z,3.30
2022-09-12T06:48:10.131Z,3.22
2022-09-12T06:49:08.201Z,2.60
2022-09-12T06:50:05.702Z,2.97
2022-09-12T06:51:07.276Z,2.80
2022-09-12T06:52:03.987Z,2.78
2022-09-12T06:53:00.581Z,2.92
2022-09-12T06:53:58.152Z,2.47
2022-09-12T06:54:54.787Z,3.00
2022-09-12T06:56:01.688Z,2.70
2022-09-12T06:56:58.251Z,2.13
2022-09-12T06:57:55.485Z,2.90
2022-09-12T06:58:53.679Z,2.90
2022-09-12T06:59:50.806Z,2.65
2022-09-12T07:00:47.427Z,2.80
2022-09-12T07:01:44.355Z,2.45
2022-09-12T07:02:41.150Z,2.78
2022-09-12T07:03:39.173Z,2.67
2022-09-12T07:04:37.170Z,2.95
2022-09-12T07:05:34.141Z,2.53
2022-09-12T07:06:37.045Z,2.92
2022-09-12T07:07:35.877Z,3.03
2022-09-12T07:08:34.170Z,3.40
2022-09-12T07:09:30.943Z,3.20
2022-09-12T07:10:27.613Z,3.05
2022-09-12T07:11:26.693Z,2.30
2022-09-12T07:12:23.302Z,3.10
2022-09-12T07:13:19.960Z,3.53
2022-09-12T07:14:16.896Z,3.00
2022-09-12T07:15:13.624Z,3.00
2022-09-12T07:16:13.820Z,2.97
2022-09-12T07:18:10.636Z,3.00
2022-09-12T07:19:08.756Z,3.33
2022-09-12T07:20:05.866Z,3.13
2022-09-12T07:21:02.990Z,2.90
2022-09-12T07:21:59.551Z,3.08
2022-09-12T07:22:56.235Z,2.72
2022-09-12T07:23:55.322Z,3.03
2022-09-12T07:24:53.491Z,3.05
2022-09-12T07:25:57.633Z,2.67
2022-09-12T07:26:54.643Z,3.10
2022-09-12T07:27:53.108Z,2.80
2022-09-12T07:28:54.656Z,2.55
2022-09-12T07:29:51.274Z,2.92
2022-09-12T07:30:47.943Z,2.95
2022-09-12T07:31:45.330Z,3.33
2022-09-12T07:32:41.967Z,2.83
2022-09-12T07:33:40.284Z,2.75
2022-09-12T07:34:37.305Z,2.78
2022-09-12T07:35:34.325Z,2.70
2022-09-12T07:36:31.091Z,2.70
2022-09-12T07:37:31.228Z,2.90
2022-09-12T07:38:27.870Z,2.90
2022-09-12T07:39:24.685Z,2.70
2022-09-12T07:40:21.905Z,2.70
2022-09-12T07:41:24.693Z,2.42
2022-09-12T07:42:21.311Z,2.35
2022-09-12T07:43:17.987Z,2.55
2022-09-12T07:44:14.793Z,2.80
2022-09-12T07:45:11.412Z,2.83
2022-09-12T07:46:09.343Z,2.33
2022-09-12T07:47:06.432Z,2.65
2022-09-12T07:48:04.073Z,2.78
2022-09-12T07:49:01.568Z,2.33
2022-09-12T07:49:58.615Z,2.08
2022-09-12T07:51:04.447Z,2.33
2022-09-12T07:52:01.239Z,2.47
2022-09-12T07:52:57.897Z,2.67
2022-09-12T07:53:56.439Z,2.92
2022-09-12T07:54:53.146Z,3.00
2022-09-12T07:55:56.784Z,2.58
2022-09-12T07:56:53.554Z,2.50
2022-09-12T07:57:51.171Z,2.78
2022-09-12T07:58:48.603Z,2.40
2022-09-12T07:59:53.379Z,2.88
2022-09-12T08:00:50.661Z,3.35
2022-09-12T08:01:47.773Z,2.80
2022-09-12T08:02:44.794Z,3.10
2022-09-12T08:03:43.281Z,2.75
2022-09-12T08:04:42.192Z,2.60
2022-09-12T08:05:38.883Z,1.90
2022-09-12T08:06:37.031Z,3.10
2022-09-12T08:07:34.215Z,2.20
2022-09-12T08:08:31.234Z,3.00
2022-09-12T08:09:27.960Z,3.20
2022-09-12T08:10:24.809Z,2.50
2022-09-12T08:11:23.086Z,3.47
2022-09-12T08:12:20.521Z,2.80
2022-09-12T08:13:17.294Z,2.75
2022-09-12T08:14:13.901Z,3.25
2022-09-12T08:15:10.817Z,2.58
2022-09-12T08:16:12.330Z,2.80
2022-09-12T08:17:09.088Z,2.88
2022-09-12T08:18:05.860Z,2.75
2022-09-12T08:19:03.814Z,2.90
2022-09-12T08:20:00.560Z,2.30
2022-09-12T08:21:24.844Z,2.30
2022-09-12T08:22:22.093Z,2.72
2022-09-12T08:23:21.366Z,2.80
2022-09-12T08:24:18.005Z,3.05
2022-09-12T08:25:15.198Z,2.65
2022-09-12T08:26:12.678Z,2.13
2022-09-12T08:27:09.444Z,2.75
2022-09-12T08:28:06.337Z,2.60
2022-09-12T08:29:04.303Z,2.13
2022-09-12T08:30:00.860Z,2.45
2022-09-12T08:31:05.578Z,2.38
2022-09-12T08:32:03.007Z,2.80
2022-09-12T08:32:59.597Z,2.60
2022-09-12T08:33:57.787Z,2.75
2022-09-12T08:34:54.365Z,2.90
2022-09-12T08:35:50.927Z,2.10
2022-09-12T08:36:48.005Z,2.38
2022-09-12T08:37:44.581Z,2.45
2022-09-12T08:38:44.023Z,3.10
2022-09-12T08:39:40.742Z,2.80
2022-09-12T08:40:53.273Z,2.90
2022-09-12T08:41:59.172Z,2.90
2022-09-12T08:43:31.290Z,2.97
2022-09-12T08:44:53.486Z,3.05
2022-09-12T08:45:59.216Z,3.17
2022-09-12T08:47:11.053Z,3.05
2022-09-12T08:48:10.190Z,2.80
2022-09-12T08:49:12.675Z,3.25
2022-09-12T08:51:15.139Z,2.70
2022-09-12T08:52:17.350Z,2.70
2022-09-12T08:53:20.336Z,3.15
2022-09-12T08:54:25.296Z,3.17
2022-09-12T08:55:38.233Z,3.17
2022-09-12T08:56:37.687Z,2.60
2022-09-12T08:57:34.482Z,2.95
2022-09-12T08:58:39.562Z,2.30
2022-09-12T08:59:39.862Z,2.80
2022-09-12T09:01:07.408Z,2.90
2022-09-12T09:02:14.873Z,2.83
2022-09-12T09:03:33.456Z,2.78
2022-09-12T09:04:51.918Z,2.45
2022-09-12T09:06:03.105Z,3.00
2022-09-12T09:07:05.964Z,2.72
2022-09-12T09:08:08.963Z,2.58
2022-09-12T09:09:05.491Z,2.50
2022-09-12T09:10:20.475Z,2.20
2022-09-12T09:11:55.117Z,3.13
2022-09-12T09:13:35.653Z,2.88
2022-09-12T09:14:50.416Z,2.55
2022-09-12T09:16:05.882Z,2.60
2022-09-12T09:17:03.345Z,2.85
2022-09-12T09:18:06.450Z,2.40
2022-09-12T09:19:10.873Z,2.40
2022-09-12T09:20:41.310Z,2.88
2022-09-12T09:21:45.132Z,2.40
2022-09-12T09:23:06.429Z,2.95
2022-09-12T09:24:10.331Z,2.25
2022-09-12T09:25:22.117Z,2.70
2022-09-12T09:26:40.205Z,2.22
2022-09-12T09:27:46.515Z,2.40
2022-09-12T09:28:49.997Z,2.70
2022-09-12T09:29:51.223Z,2.45
2022-09-12T09:30:47.869Z,2.78
2022-09-12T09:31:49.979Z,2.53
2022-09-12T09:32:51.039Z,2.42
2022-09-12T09:33:55.497Z,2.50
2022-09-12T09:34:52.372Z,2.10
2022-09-12T09:35:59.227Z,2.38
2022-09-12T09:37:03.983Z,2.08
2022-09-12T09:38:06.776Z,1.85
2022-09-12T09:39:24.650Z,1.88
2022-09-12T09:40:31.862Z,2.33
2022-09-12T09:41:43.839Z,2.20
2022-09-12T09:42:54.017Z,2.45
2022-09-12T09:43:50.753Z,2.28
2022-09-12T09:44:49.134Z,2.25
2022-09-12T09:45:47.874Z,2.40
2022-09-12T09:46:44.964Z,17.35
2022-09-12T09:47:43.221Z,19.35
2022-09-12T09:48:48.808Z,7.75
2022-09-12T09:49:45.788Z,67.38
2022-09-12T09:50:43.861Z,96.78
2022-09-12T09:51:42.786Z,11.35
2022-09-12T09:52:40.068Z,5.32
2022-09-12T09:53:53.365Z,3.70
2022-09-12T09:54:57.828Z,4.25
2022-09-12T09:55:56.795Z,3.38
2022-09-12T09:56:53.415Z,11.23
2022-09-12T09:57:52.068Z,3.50
2022-09-12T09:58:48.801Z,3.78
2022-09-12T09:59:45.378Z,3.85
2022-09-12T10:00:42.073Z,3.83
2022-09-12T10:01:51.538Z,34.85
2022-09-12T10:03:13.572Z,86.85
2022-09-12T10:04:23.488Z,66.47
2022-09-12T10:05:20.109Z,122.43
2022-09-12T10:06:25.605Z,16.08
2022-09-12T10:07:23.196Z,27.02
2022-09-12T10:08:21.350Z,35.65
2022-09-12T10:09:19.708Z,55.33
2022-09-12T10:10:19.079Z,13.18
2022-09-12T10:11:15.602Z,4.93
2022-09-12T10:12:30.832Z,3.55
2022-09-12T10:13:43.002Z,5.03
2022-09-12T10:14:41.732Z,4.30
2022-09-12T10:15:38.452Z,17.83
2022-09-12T10:16:52.712Z,9.80
2022-09-12T10:17:50.997Z,10.00
2022-09-12T10:18:48.549Z,4.55
2022-09-12T10:19:52.645Z,3.00
2022-09-12T10:20:57.196Z,3.67
2022-09-12T10:21:57.064Z,7.72
2022-09-12T10:22:53.840Z,3.40
2022-09-12T10:24:04.017Z,2.90
2022-09-12T10:25:01.436Z,3.40
2022-09-12T10:26:01.546Z,4.40
2022-09-12T10:27:05.944Z,3.38
2022-09-12T10:28:02.949Z,3.08
2022-09-12T10:29:06.841Z,3.00
2022-09-12T10:30:17.711Z,2.60
2022-09-12T10:31:17.212Z,3.95
2022-09-12T10:32:30.507Z,2.50
2022-09-12T10:33:28.361Z,3.30
2022-09-12T10:34:25.569Z,2.50
2022-09-12T10:35:31.062Z,2.47
2022-09-12T10:36:37.311Z,2.97
2022-09-12T10:37:37.381Z,2.80
2022-09-12T10:38:34.540Z,2.38
2022-09-12T10:39:32.773Z,2.50
2022-09-12T10:40:34.555Z,2.50
2022-09-12T10:41:39.992Z,2.38
2022-09-12T10:42:53.209Z,2.58
2022-09-12T10:43:50.595Z,2.40
2022-09-12T10:44:54.323Z,15.10
2022-09-12T10:45:51.157Z,12.40
2022-09-12T10:46:47.848Z,6.40
2022-09-12T10:47:44.478Z,9.48
2022-09-12T10:48:41.827Z,8.48
2022-09-12T10:49:40.389Z,2.85
2022-09-12T10:50:44.095Z,2.50
2022-09-12T10:51:40.751Z,3.83
2022-09-12T10:52:37.316Z,3.10
2022-09-12T10:53:43.628Z,2.47
2022-09-12T10:54:40.744Z,3.83
2022-09-12T10:55:37.366Z,4.35
2022-09-12T10:56:39.512Z,2.95
2022-09-12T10:57:47.821Z,3.40
2022-09-12T10:58:50.256Z,3.15
2022-09-12T11:00:59.652Z,3.45
2022-09-12T11:02:01.816Z,7.05
2022-09-12T11:03:43.353Z,5.40
2022-09-12T11:05:00.767Z,3.45
2022-09-12T11:06:02.038Z,4.07
2022-09-12T11:07:19.640Z,3.97
2022-09-12T11:08:34.716Z,5.47
2022-09-12T11:09:56.024Z,3.90
2022-09-12T11:11:05.698Z,4.40
2022-09-12T11:12:17.245Z,3.90
2022-09-12T11:13:22.788Z,3.97
2022-09-12T11:14:44.041Z,4.15
2022-09-12T11:15:49.156Z,3.95
2022-09-12T11:16:57.861Z,4.10
2022-09-12T11:18:05.380Z,3.67
2022-09-12T11:19:35.923Z,3.90
2022-09-12T11:20:58.723Z,4.40
2022-09-12T11:22:07.363Z,4.10
2022-09-12T11:23:24.577Z,3.67
2022-09-12T11:24:21.269Z,3.38
2022-09-12T11:25:41.149Z,4.60
2022-09-12T11:27:10.025Z,4.47
2022-09-12T11:28:34.584Z,3.33
2022-09-12T11:29:59.254Z,3.72
2022-09-12T11:31:10.903Z,5.07
2022-09-12T11:32:22.662Z,4.50
2022-09-12T11:33:25.471Z,3.65
2022-09-12T11:34:49.753Z,4.07
2022-09-12T11:35:55.155Z,3.90
2022-09-12T11:37:17.951Z,4.20
2022-09-12T11:38:51.438Z,4.22
2022-09-12T11:39:55.693Z,9.40
2022-09-12T11:41:06.536Z,6.70
2022-09-12T11:42:06.282Z,7.25
2022-09-12T11:43:11.997Z,4.10
2022-09-12T11:44:19.125Z,6.93
2022-09-12T11:45:46.058Z,5.38
2022-09-12T11:46:46.719Z,3.55
2022-09-12T11:47:50.245Z,3.45
2022-09-12T11:49:15.529Z,3.50
2022-09-12T11:50:38.417Z,3.47
2022-09-12T11:51:42.660Z,3.50
2022-09-12T11:52:40.673Z,3.90
2022-09-12T11:53:40.823Z,3.22
2022-09-12T11:54:59.995Z,2.78
2022-09-12T11:56:08.745Z,3.60
2022-09-12T11:57:20.676Z,3.08
2022-09-12T11:58:21.080Z,3.50
2022-09-12T11:59:31.223Z,3.78
2022-09-12T12:00:34.207Z,3.13
2022-09-12T12:01:48.500Z,3.25
2022-09-12T12:03:00.396Z,3.22
2022-09-12T12:03:58.670Z,3.70
2022-09-12T12:05:17.070Z,3.30
2022-09-12T12:06:21.371Z,3.25
2022-09-12T12:07:18.069Z,2.80
2022-09-12T12:08:14.918Z,3.30
2022-09-12T12:09:13.435Z,3.40
2022-09-12T12:10:36.971Z,3.33
2022-09-12T12:11:38.443Z,3.50
2022-09-12T12:12:35.920Z,2.97
2022-09-12T12:13:32.508Z,3.20
2022-09-12T12:14:51.064Z,2.88
2022-09-12T12:15:51.398Z,3.40
2022-09-12T12:16:49.607Z,2.85
2022-09-12T12:18:03.588Z,3.38
2022-09-12T12:19:02.063Z,3.35
2022-09-12T12:20:07.633Z,3.38
2022-09-12T12:21:43.972Z,3.63
2022-09-12T12:22:52.408Z,3.50
2022-09-12T12:24:10.135Z,2.97
2022-09-12T12:25:12.884Z,2.80
2022-09-12T12:26:58.567Z,3.53
2022-09-12T12:27:59.201Z,2.90
2022-09-12T12:28:58.866Z,3.10
2022-09-12T12:29:55.520Z,4.10
2022-09-12T12:31:00.122Z,4.10
2022-09-12T12:31:59.413Z,3.75
2022-09-12T12:33:10.911Z,3.17
2022-09-12T12:34:46.805Z,5.75
2022-09-12T12:36:01.699Z,3.10
2022-09-12T12:37:00.713Z,3.40
2022-09-12T12:38:00.079Z,3.38
2022-09-12T12:38:56.741Z,3.15
2022-09-12T12:40:04.638Z,13.30
2022-09-12T12:41:19.465Z,5.03
2022-09-12T12:42:34.567Z,6.53
2022-09-12T12:43:32.214Z,5.57
2022-09-12T12:44:44.022Z,3.70
2022-09-12T12:45:40.584Z,3.35
2022-09-12T12:46:38.587Z,3.22
2022-09-12T12:47:38.306Z,3.08
2022-09-12T12:48:59.042Z,3.33
2022-09-12T12:50:00.378Z,3.05
2022-09-12T12:51:36.181Z,3.40
2022-09-12T12:52:58.837Z,12.07
2022-09-12T12:53:55.857Z,2.90
2022-09-12T12:54:56.412Z,3.30
2022-09-12T12:55:55.907Z,4.18
2022-09-12T12:57:02.551Z,2.95
2022-09-12T12:58:01.210Z,6.03
2022-09-12T12:59:00.802Z,6.43
2022-09-12T13:00:25.621Z,6.40
2022-09-12T13:01:23.721Z,3.08
2022-09-12T13:02:35.200Z,3.05
2022-09-12T13:03:34.165Z,3.20
2022-09-12T13:04:32.646Z,3.55
2022-09-12T13:05:38.226Z,3.47
2022-09-12T13:06:41.460Z,3.20
2022-09-12T13:07:40.089Z,3.45
2022-09-12T13:08:43.703Z,2.67
2022-09-12T13:09:49.562Z,3.40
2022-09-12T13:10:57.999Z,2.95
2022-09-12T13:11:59.452Z,2.85
2022-09-12T13:13:05.233Z,2.80
2022-09-12T13:14:09.488Z,2.72
2022-09-12T13:15:47.149Z,3.40
2022-09-12T13:17:00.031Z,4.28
2022-09-12T13:18:03.170Z,3.10
2022-09-12T13:19:33.492Z,3.10
2022-09-12T13:20:33.572Z,3.70
2022-09-12T13:21:30.188Z,3.63
2022-09-12T13:22:46.557Z,3.30
2022-09-12T13:23:44.284Z,2.90
2022-09-12T13:24:47.115Z,3.10
2022-09-12T13:25:53.001Z,3.80
2022-09-12T13:26:49.634Z,2.92
2022-09-12T13:28:04.432Z,6.43
2022-09-12T13:29:15.094Z,3.25
2022-09-12T13:30:15.644Z,3.90
2022-09-12T13:31:25.570Z,3.22
2022-09-12T13:32:22.258Z,3.63
2022-09-12T13:33:24.543Z,3.15
2022-09-12T13:34:25.371Z,3.70
2022-09-12T13:35:45.762Z,4.07
2022-09-12T13:36:47.592Z,9.23
2022-09-12T13:38:00.667Z,5.10
2022-09-12T13:39:16.272Z,3.40
2022-09-12T13:40:12.933Z,3.30
2022-09-12T13:41:12.608Z,4.05
2022-09-12T13:42:30.628Z,14.43
2022-09-12T13:43:38.884Z,4.70
2022-09-12T13:44:45.778Z,3.70
2022-09-12T13:45:43.622Z,3.50
2022-09-12T13:46:40.862Z,3.25
2022-09-12T13:47:45.695Z,3.47
2022-09-12T13:48:43.144Z,3.60
2022-09-12T13:49:41.864Z,3.40
2022-09-12T13:51:00.913Z,3.28
2022-09-12T13:52:07.405Z,3.50
2022-09-12T13:53:07.573Z,3.55
2022-09-12T13:54:05.672Z,3.45
2022-09-12T13:55:07.686Z,3.50
2022-09-12T13:56:04.326Z,3.40
2022-09-12T13:57:00.887Z,3.30
2022-09-12T13:58:00.483Z,3.92
2022-09-12T13:58:59.279Z,3.80
2022-09-12T13:59:57.697Z,4.18